KAUM

Austin Municipal Airport

Austin, Minnesota, USA
METAR KAUM 221755Z AUTO 11008KT 10SM CLR 12/02 A3033 RMK AO2
Observed Flight Rules
Apr-22 @ 17:55 UTC (24 minutes ago) Visual Flight Rules
Wind Visibility Clouds
110° at 8 knots 10 miles
  • Clear skies
Temperatures Readings
Current 12°C / 54°F
Dewpoint 2°C / 36°F
Humidity 51%
Altimeter 30.33" Hg
Pressure 1027 hPa
Elevation 375
METAR KAUM 221755Z AUTO 11008KT 10SM CLR 12/02 A3033 RMK AO2
Observed Flight Rules
Apr-22 @ 17:55 UTC
(24 minutes ago)
VFR
Wind Visibility
110° at 8 knots 10 miles
Clouds
  • Clear skies
Temperature Dewpoint
12°C / 54°F 2°C / 36°F
Humidity Altimeter Pressure
51% 30.33" Hg 1027 hPa